createdAt,value
2018-09-22T00:00:48.686Z,100192.09
2018-09-22T00:05:51.958Z,100195.48
2018-09-22T00:10:55.238Z,100199.34
2018-09-22T00:15:58.514Z,100211.43
2018-09-22T00:21:01.927Z,100207.44
2018-09-22T00:26:05.202Z,100214.72
2018-09-22T00:31:08.483Z,100214.47
2018-09-22T00:36:11.775Z,100209.16
2018-09-22T00:41:15.052Z,100203.88
2018-09-22T00:46:18.478Z,100207.52
2018-09-22T00:51:21.759Z,100202.48
2018-09-22T00:56:25.038Z,100213.09
2018-09-22T01:01:28.318Z,100223.78
2018-09-22T01:06:31.595Z,100229.08
2018-09-22T01:11:34.874Z,100233.75
2018-09-22T01:16:38.442Z,100232.64
2018-09-22T01:21:41.734Z,100243.59
2018-09-22T01:26:45.019Z,100236.38
2018-09-22T01:31:48.314Z,100251.83
2018-09-22T01:36:51.606Z,100248.44
2018-09-22T01:41:54.886Z,100257.14
2018-09-22T01:46:58.192Z,100267.23
2018-09-22T01:52:01.469Z,100266.88
2018-09-22T01:57:04.758Z,100270.08
2018-09-22T02:02:08.055Z,100278.35
2018-09-22T02:07:11.339Z,100280.78
2018-09-22T02:12:14.629Z,100288.34
2018-09-22T02:17:17.909Z,100295.03
2018-09-22T02:22:21.274Z,100305.13
2018-09-22T02:27:24.554Z,100308.94
2018-09-22T02:32:27.867Z,100318.13
2018-09-22T02:37:31.150Z,100318.85
2018-09-22T02:42:34.441Z,100316.05
2018-09-22T02:47:37.727Z,100316.47
2018-09-22T02:52:40.997Z,100323.00
2018-09-22T02:57:44.278Z,100327.36
2018-09-22T03:02:47.588Z,100332.83
2018-09-22T03:07:50.970Z,100333.58
2018-09-22T03:12:54.255Z,100335.85
2018-09-22T03:17:57.551Z,100349.39
2018-09-22T03:23:00.840Z,100352.00
2018-09-22T03:28:04.122Z,100346.44
2018-09-22T03:33:07.410Z,100351.63
2018-09-22T03:38:10.774Z,100358.67
2018-09-22T03:43:14.058Z,100342.84
2018-09-22T03:48:17.332Z,100346.25
2018-09-22T03:53:20.615Z,100343.89
2018-09-22T03:58:23.899Z,100344.32
2018-09-22T04:03:27.185Z,100335.44
2018-09-22T04:08:30.464Z,100354.66
2018-09-22T04:13:33.878Z,100366.02
2018-09-22T04:18:37.171Z,100374.27
2018-09-22T04:23:40.458Z,100391.48
2018-09-22T04:28:43.739Z,100400.67
2018-09-22T04:33:47.019Z,100402.30
2018-09-22T04:38:50.303Z,100413.08
2018-09-22T04:43:53.610Z,100406.47
2018-09-22T04:48:56.932Z,100406.13
2018-09-22T04:54:00.258Z,100421.57
2018-09-22T04:59:03.558Z,100430.00
2018-09-22T05:04:06.854Z,100441.11
2018-09-22T05:09:11.962Z,100441.27
2018-09-22T05:14:15.266Z,100451.65
2018-09-22T05:19:18.543Z,100448.34
2018-09-22T05:24:21.843Z,100457.10
2018-09-22T05:29:25.118Z,100451.31
2018-09-22T05:34:28.394Z,100457.52
2018-09-22T05:39:31.679Z,100452.52
2018-09-22T05:44:34.958Z,100461.45
2018-09-22T05:49:38.243Z,100467.54
2018-09-22T05:54:41.524Z,100475.72
2018-09-22T05:59:44.811Z,100472.39
2018-09-22T06:04:48.090Z,100485.31
2018-09-22T06:09:51.374Z,100480.96
2018-09-22T06:14:54.662Z,100497.11
2018-09-22T06:19:57.959Z,100506.11
2018-09-22T06:25:01.241Z,100515.28
2018-09-22T06:30:04.691Z,100516.62
2018-09-22T06:35:07.971Z,100529.48
2018-09-22T06:40:11.259Z,100535.30
2018-09-22T06:45:14.533Z,100555.64
2018-09-22T06:50:17.818Z,100546.06
2018-09-22T06:55:21.106Z,100554.59
2018-09-22T07:00:24.499Z,100545.21
2018-09-22T07:05:27.787Z,100565.39
2018-09-22T07:10:31.063Z,100556.30
2018-09-22T07:15:34.334Z,100551.56
2018-09-22T07:20:37.636Z,100566.03
2018-09-22T07:25:40.913Z,100570.84
2018-09-22T07:30:44.231Z,100573.94
2018-09-22T07:35:47.498Z,100578.22
2018-09-22T07:40:50.787Z,100576.94
2018-09-22T07:45:54.178Z,100582.13
2018-09-22T07:50:57.438Z,100577.72
2018-09-22T07:56:00.895Z,100578.38
2018-09-22T08:01:04.191Z,100585.86
2018-09-22T08:06:07.495Z,100582.34
2018-09-22T08:11:10.774Z,100578.42
2018-09-22T08:16:14.055Z,100593.22
2018-09-22T08:21:17.361Z,100590.66
2018-09-22T08:26:20.895Z,100582.86
2018-09-22T08:31:24.181Z,100585.92
2018-09-22T08:36:27.569Z,100592.19
2018-09-22T08:41:30.783Z,100582.98
2018-09-22T08:46:34.066Z,100585.16
2018-09-22T08:51:37.542Z,100594.58
2018-09-22T08:56:40.838Z,100600.70
2018-09-22T09:01:44.113Z,100610.08
2018-09-22T09:06:47.399Z,100604.27
2018-09-22T09:11:50.684Z,100610.53
2018-09-22T09:16:53.980Z,100605.05
2018-09-22T09:21:57.270Z,100604.75
2018-09-22T09:27:01.006Z,100599.19
2018-09-22T09:32:04.282Z,100605.63
2018-09-22T09:37:07.631Z,100589.79
2018-09-22T09:42:11.075Z,100591.61
2018-09-22T09:47:14.359Z,100598.75
2018-09-22T09:52:17.635Z,100608.05
2018-09-22T09:57:20.919Z,100601.88
2018-09-22T10:02:24.200Z,100598.16
2018-09-22T10:07:27.541Z,100595.25
2018-09-22T10:12:30.830Z,100588.08
2018-09-22T10:17:34.099Z,100575.66
2018-09-22T10:22:37.642Z,100584.70
2018-09-22T10:27:41.021Z,100584.99
2018-09-22T10:32:44.427Z,100580.72
2018-09-22T10:37:47.715Z,100571.50
2018-09-22T10:42:51.051Z,100575.58
2018-09-22T10:47:54.540Z,100572.55
2018-09-22T10:52:57.881Z,100559.91
2018-09-22T10:58:01.164Z,100563.91
2018-09-22T11:03:04.482Z,100577.59
2018-09-22T11:08:07.953Z,100569.77
2018-09-22T11:13:11.291Z,100560.34
2018-09-22T11:18:14.809Z,100556.34
2018-09-22T11:23:18.255Z,100566.28
2018-09-22T11:28:21.779Z,100560.09
2018-09-22T11:33:25.136Z,100564.03
2018-09-22T11:38:28.540Z,100558.78
2018-09-22T11:43:31.992Z,100559.38
2018-09-22T11:48:35.272Z,100551.98
2018-09-22T11:53:39.079Z,100550.27
2018-09-22T11:58:42.442Z,100551.81
2018-09-22T12:03:45.908Z,100543.20
2018-09-22T12:08:49.271Z,100541.12
2018-09-22T12:13:52.759Z,100539.27
2018-09-22T12:18:56.079Z,100541.12
2018-09-22T12:23:59.542Z,100522.03
2018-09-22T12:29:03.172Z,100513.84
2018-09-22T12:34:07.008Z,100517.75
2018-09-22T12:43:31.795Z,100515.49
2018-09-22T12:48:35.222Z,100519.32
2018-09-22T12:53:38.808Z,100530.47
2018-09-22T12:58:42.567Z,100526.47
2018-09-22T13:03:45.879Z,100516.28
2018-09-22T13:08:49.726Z,100509.20
2018-09-22T13:13:53.019Z,100485.50
2018-09-22T13:18:56.311Z,100484.11
2018-09-22T13:23:59.602Z,100489.17
2018-09-22T13:29:03.042Z,100474.34
2018-09-22T13:34:06.653Z,100481.31
2018-09-22T13:39:11.443Z,100489.85
2018-09-22T13:44:14.726Z,100506.94
2018-09-22T13:49:18.038Z,100481.31
2018-09-22T13:54:21.346Z,100464.92
2018-09-22T13:59:24.722Z,100470.68
2018-09-22T14:04:28.167Z,100467.54
2018-09-22T14:09:31.826Z,100464.92
2018-09-22T14:14:35.107Z,100454.13
2018-09-22T14:19:38.391Z,100455.52
2018-09-22T14:24:41.681Z,100441.40
2018-09-22T14:29:45.139Z,100420.69
2018-09-22T14:34:48.435Z,100433.20
2018-09-22T14:39:51.714Z,100455.95
2018-09-22T14:44:55.076Z,100448.20
2018-09-22T14:49:58.354Z,100439.30
2018-09-22T14:55:01.699Z,100423.97
2018-09-22T15:00:05.290Z,100431.05
2018-09-22T15:05:08.582Z,100429.83
2018-09-22T15:10:11.862Z,100421.30
2018-09-22T15:15:15.134Z,100416.15
2018-09-22T15:20:18.429Z,100412.31
2018-09-22T15:25:21.727Z,100397.30
2018-09-22T15:30:25.047Z,100377.75
2018-09-22T15:35:28.370Z,100383.33
2018-09-22T15:40:31.675Z,100383.16
2018-09-22T15:45:35.002Z,100388.12
2018-09-22T15:50:38.279Z,100369.59
2018-09-22T15:55:41.571Z,100384.26
2018-09-22T16:00:45.126Z,100386.00
2018-09-22T16:05:48.428Z,100376.44
2018-09-22T16:10:51.715Z,100369.47
2018-09-22T16:15:55.009Z,100365.38
2018-09-22T16:20:58.318Z,100372.34
2018-09-22T16:26:01.615Z,100372.17
2018-09-22T16:31:04.899Z,100358.66
2018-09-22T16:36:08.173Z,100354.66
2018-09-22T16:41:11.499Z,100359.13
2018-09-22T16:46:14.823Z,100352.59
2018-09-22T16:51:18.124Z,100357.99
2018-09-22T16:56:21.977Z,100351.63
2018-09-22T17:01:25.265Z,100336.73
2018-09-22T17:06:28.974Z,100324.63
2018-09-22T17:11:32.250Z,100336.56
2018-09-22T17:16:35.572Z,100338.24
2018-09-22T17:21:38.854Z,100349.72
2018-09-22T17:26:42.239Z,100345.83
2018-09-22T17:31:45.518Z,100354.50
2018-09-22T17:36:48.826Z,100358.36
2018-09-22T17:41:52.146Z,100341.64
2018-09-22T17:46:55.455Z,100332.93
2018-09-22T17:51:58.862Z,100336.33
2018-09-22T17:57:02.141Z,100337.72
2018-09-22T18:02:05.591Z,100350.88
2018-09-22T18:07:08.892Z,100357.84
2018-09-22T18:12:12.254Z,100368.38
2018-09-22T18:17:15.538Z,100363.41
2018-09-22T18:22:18.994Z,100376.73
2018-09-22T18:27:22.387Z,100358.97
2018-09-22T18:32:26.117Z,100357.84
2018-09-22T18:37:29.434Z,100355.84
2018-09-22T18:42:32.766Z,100343.91
2018-09-22T18:47:36.063Z,100338.94
2018-09-22T18:52:39.398Z,100336.33
2018-09-22T18:57:42.674Z,100360.62
2018-09-22T19:02:46.616Z,100365.59
2018-09-22T19:07:50.218Z,100360.02
2018-09-22T19:12:54.026Z,100372.81
2018-09-22T19:18:07.082Z,100364.45
2018-09-22T19:23:18.359Z,100363.52
2018-09-22T19:28:27.122Z,100364.45
2018-09-22T19:33:38.078Z,100346.52
2018-09-22T19:38:46.039Z,100348.38
2018-09-22T19:43:55.450Z,100364.31
2018-09-22T19:49:05.678Z,100355.95
2018-09-22T19:54:09.003Z,100369.27
2018-09-22T19:59:12.674Z,100376.67
2018-09-22T20:04:16.796Z,100375.71
2018-09-22T20:09:20.104Z,100384.86
2018-09-22T20:14:23.382Z,100367.28
2018-09-22T20:19:27.136Z,100364.58
2018-09-22T20:24:31.710Z,100376.34
2018-09-22T20:29:35.399Z,100376.16
2018-09-22T20:34:39.794Z,100373.98
2018-09-22T20:39:43.698Z,100390.98
2018-09-22T20:44:47.500Z,100383.84
2018-09-22T20:49:51.198Z,100398.38
2018-09-22T20:54:54.713Z,100391.67
2018-09-22T20:59:58.078Z,100385.77
2018-09-22T21:05:01.369Z,100382.09
2018-09-22T21:10:05.888Z,100384.70
2018-09-22T21:15:09.544Z,100384.53
2018-09-22T21:20:13.111Z,100391.50
2018-09-22T21:25:17.361Z,100394.74
2018-09-22T21:30:21.347Z,100384.03
2018-09-22T21:35:24.990Z,100381.06
2018-09-22T21:40:29.194Z,100389.42
2018-09-22T21:45:32.609Z,100377.56
2018-09-22T21:50:35.982Z,100376.78
2018-09-22T21:55:39.295Z,100380.45
2018-09-22T22:00:42.623Z,100384.63
2018-09-22T22:05:46.116Z,100389.60
2018-09-22T22:10:49.418Z,100385.29
2018-09-22T22:15:52.795Z,100389.32
2018-09-22T22:20:56.362Z,100392.86
2018-09-22T22:25:59.764Z,100384.69
2018-09-22T22:31:03.170Z,100387.29
2018-09-22T22:36:07.860Z,100387.85
2018-09-22T22:41:12.802Z,100383.89
2018-09-22T22:46:18.535Z,100387.14
2018-09-22T22:51:22.965Z,100380.00
2018-09-22T22:56:26.558Z,100374.00
2018-09-22T23:01:29.853Z,100372.25
2018-09-22T23:06:33.138Z,100369.18
2018-09-22T23:11:36.434Z,100357.72
2018-09-22T23:16:39.719Z,100353.19
2018-09-22T23:21:43.131Z,100349.79
2018-09-22T23:26:46.427Z,100360.94
2018-09-22T23:31:49.706Z,100367.72
2018-09-22T23:36:53.050Z,100360.75
2018-09-22T23:41:56.330Z,100366.94
2018-09-22T23:46:59.610Z,100369.37
2018-09-22T23:52:02.902Z,100368.94
2018-09-22T23:57:06.462Z,100365.83
